sensor_id;sensor_type;location;lat;lon;timestamp;temperature;humidity
8527;DHT22;4301;48.362;8.478;2023-01-24T00:00:55;0.10;99.90
8527;DHT22;4301;48.362;8.478;2023-01-24T00:03:24;0.10;99.90
8527;DHT22;4301;48.362;8.478;2023-01-24T00:05:51;0.10;99.90
8527;DHT22;4301;48.362;8.478;2023-01-24T00:08:19;0.00;99.90
8527;DHT22;4301;48.362;8.478;2023-01-24T00:10:56;0.10;99.90
8527;DHT22;4301;48.362;8.478;2023-01-24T00:13:23;0.10;99.90
8527;DHT22;4301;48.362;8.478;2023-01-24T00:15:50;0.10;99.90
8527;DHT22;4301;48.362;8.478;2023-01-24T00:18:17;0.10;99.90
8527;DHT22;4301;48.362;8.478;2023-01-24T00:20:46;0.00;99.90
8527;DHT22;4301;48.362;8.478;2023-01-24T00:23:13;0.10;99.90
8527;DHT22;4301;48.362;8.478;2023-01-24T00:25:39;0.10;99.90
8527;DHT22;4301;48.362;8.478;2023-01-24T00:28:06;0.10;99.90
8527;DHT22;4301;48.362;8.478;2023-01-24T00:30:33;0.00;99.90
8527;DHT22;4301;48.362;8.478;2023-01-24T00:33:00;0.00;99.90
8527;DHT22;4301;48.362;8.478;2023-01-24T00:35:27;0.00;99.90
8527;DHT22;4301;48.362;8.478;2023-01-24T00:37:55;0.00;99.90
8527;DHT22;4301;48.362;8.478;2023-01-24T00:40:22;0.00;99.90
8527;DHT22;4301;48.362;8.478;2023-01-24T00:42:49;0.00;99.90
8527;DHT22;4301;48.362;8.478;2023-01-24T00:45:17;0.00;99.90
8527;DHT22;4301;48.362;8.478;2023-01-24T00:47:44;0.10;99.90
8527;DHT22;4301;48.362;8.478;2023-01-24T00:50:11;0.00;99.90
8527;DHT22;4301;48.362;8.478;2023-01-24T00:52:37;0.00;99.90
8527;DHT22;4301;48.362;8.478;2023-01-24T00:55:06;0.00;99.90
8527;DHT22;4301;48.362;8.478;2023-01-24T00:57:33;0.10;99.90
8527;DHT22;4301;48.362;8.478;2023-01-24T01:00:00;0.10;99.90
8527;DHT22;4301;48.362;8.478;2023-01-24T01:02:27;0.20;99.90
8527;DHT22;4301;48.362;8.478;2023-01-24T01:04:54;0.10;99.90
8527;DHT22;4301;48.362;8.478;2023-01-24T01:07:21;0.00;99.90
8527;DHT22;4301;48.362;8.478;2023-01-24T01:09:48;0.00;99.90
8527;DHT22;4301;48.362;8.478;2023-01-24T01:12:16;0.10;99.90
8527;DHT22;4301;48.362;8.478;2023-01-24T01:14:43;0.00;99.90
8527;DHT22;4301;48.362;8.478;2023-01-24T01:17:10;0.00;99.90
8527;DHT22;4301;48.362;8.478;2023-01-24T01:19:37;0.00;99.90
8527;DHT22;4301;48.362;8.478;2023-01-24T01:22:04;0.00;99.90
8527;DHT22;4301;48.362;8.478;2023-01-24T01:24:31;0.00;99.90
8527;DHT22;4301;48.362;8.478;2023-01-24T01:26:59;0.00;99.90
8527;DHT22;4301;48.362;8.478;2023-01-24T01:29:27;0.00;99.90
8527;DHT22;4301;48.362;8.478;2023-01-24T01:31:54;0.00;99.90
8527;DHT22;4301;48.362;8.478;2023-01-24T01:34:21;0.00;99.90
8527;DHT22;4301;48.362;8.478;2023-01-24T01:36:48;0.00;99.90
8527;DHT22;4301;48.362;8.478;2023-01-24T01:39:15;0.00;99.90
8527;DHT22;4301;48.362;8.478;2023-01-24T01:41:42;0.00;99.90
8527;DHT22;4301;48.362;8.478;2023-01-24T01:44:19;0.00;99.90
8527;DHT22;4301;48.362;8.478;2023-01-24T01:47:15;0.00;99.90
8527;DHT22;4301;48.362;8.478;2023-01-24T01:49:48;0.00;99.90
8527;DHT22;4301;48.362;8.478;2023-01-24T01:52:17;0.00;99.90
8527;DHT22;4301;48.362;8.478;2023-01-24T01:54:46;0.00;99.90
8527;DHT22;4301;48.362;8.478;2023-01-24T01:57:15;0.00;99.90
8527;DHT22;4301;48.362;8.478;2023-01-24T01:59:47;0.00;99.90
8527;DHT22;4301;48.362;8.478;2023-01-24T02:02:19;0.00;99.90
8527;DHT22;4301;48.362;8.478;2023-01-24T02:04:52;0.00;99.90
8527;DHT22;4301;48.362;8.478;2023-01-24T02:07:21;0.00;99.90
8527;DHT22;4301;48.362;8.478;2023-01-24T02:09:51;0.00;99.90
8527;DHT22;4301;48.362;8.478;2023-01-24T02:12:20;0.00;99.90
8527;DHT22;4301;48.362;8.478;2023-01-24T02:14:49;0.00;99.90
8527;DHT22;4301;48.362;8.478;2023-01-24T02:17:36;0.00;99.90
8527;DHT22;4301;48.362;8.478;2023-01-24T02:20:11;0.00;99.90
8527;DHT22;4301;48.362;8.478;2023-01-24T02:22:45;0.00;99.90
8527;DHT22;4301;48.362;8.478;2023-01-24T02:25:21;0.00;99.90
8527;DHT22;4301;48.362;8.478;2023-01-24T02:27:51;0.00;99.90
8527;DHT22;4301;48.362;8.478;2023-01-24T02:30:19;0.00;99.90
8527;DHT22;4301;48.362;8.478;2023-01-24T02:32:45;-0.10;99.90
8527;DHT22;4301;48.362;8.478;2023-01-24T02:35:24;-0.10;99.90
8527;DHT22;4301;48.362;8.478;2023-01-24T02:37:51;0.00;99.90
8527;DHT22;4301;48.362;8.478;2023-01-24T02:40:18;-0.10;99.90
8527;DHT22;4301;48.362;8.478;2023-01-24T02:42:46;0.00;99.90
8527;DHT22;4301;48.362;8.478;2023-01-24T02:45:19;-0.10;99.90
8527;DHT22;4301;48.362;8.478;2023-01-24T02:47:49;-0.10;99.90
8527;DHT22;4301;48.362;8.478;2023-01-24T02:50:17;-0.10;99.90
8527;DHT22;4301;48.362;8.478;2023-01-24T02:52:44;-0.10;99.90
8527;DHT22;4301;48.362;8.478;2023-01-24T02:55:28;-0.10;99.90
8527;DHT22;4301;48.362;8.478;2023-01-24T02:57:55;-0.10;99.90
8527;DHT22;4301;48.362;8.478;2023-01-24T03:00:35;-0.10;99.90
8527;DHT22;4301;48.362;8.478;2023-01-24T03:03:02;-0.10;99.90
8527;DHT22;4301;48.362;8.478;2023-01-24T03:05:30;-0.10;99.90
8527;DHT22;4301;48.362;8.478;2023-01-24T03:08:06;-0.10;99.90
8527;DHT22;4301;48.362;8.478;2023-01-24T03:10:33;-0.10;99.90
8527;DHT22;4301;48.362;8.478;2023-01-24T03:13:01;-0.10;99.90
8527;DHT22;4301;48.362;8.478;2023-01-24T03:15:47;-0.10;99.90
8527;DHT22;4301;48.362;8.478;2023-01-24T03:18:31;-0.10;99.90
8527;DHT22;4301;48.362;8.478;2023-01-24T03:21:15;-0.10;99.90
8527;DHT22;4301;48.362;8.478;2023-01-24T03:23:59;-0.10;99.90
8527;DHT22;4301;48.362;8.478;2023-01-24T03:26:44;-0.10;99.90
8527;DHT22;4301;48.362;8.478;2023-01-24T03:29:28;-0.10;99.90
8527;DHT22;4301;48.362;8.478;2023-01-24T03:32:14;-0.10;99.90
8527;DHT22;4301;48.362;8.478;2023-01-24T03:34:58;-0.10;99.90
8527;DHT22;4301;48.362;8.478;2023-01-24T03:37:25;-0.10;99.90
8527;DHT22;4301;48.362;8.478;2023-01-24T03:40:25;0.00;99.90
8527;DHT22;4301;48.362;8.478;2023-01-24T03:42:52;0.00;99.90
8527;DHT22;4301;48.362;8.478;2023-01-24T03:45:20;-0.10;99.90
8527;DHT22;4301;48.362;8.478;2023-01-24T03:47:50;0.00;99.90
8527;DHT22;4301;48.362;8.478;2023-01-24T03:50:32;0.00;99.90
8527;DHT22;4301;48.362;8.478;2023-01-24T03:53:17;0.00;99.90
8527;DHT22;4301;48.362;8.478;2023-01-24T03:55:44;0.00;99.90
8527;DHT22;4301;48.362;8.478;2023-01-24T03:58:12;0.00;99.90
8527;DHT22;4301;48.362;8.478;2023-01-24T04:00:39;0.00;99.90
8527;DHT22;4301;48.362;8.478;2023-01-24T04:03:07;0.00;99.90
8527;DHT22;4301;48.362;8.478;2023-01-24T04:05:35;0.00;99.90
8527;DHT22;4301;48.362;8.478;2023-01-24T04:08:03;0.00;99.90
8527;DHT22;4301;48.362;8.478;2023-01-24T04:10:30;0.00;99.90
8527;DHT22;4301;48.362;8.478;2023-01-24T04:12:57;0.00;99.90
8527;DHT22;4301;48.362;8.478;2023-01-24T04:15:26;0.00;99.90
8527;DHT22;4301;48.362;8.478;2023-01-24T04:17:54;0.00;99.90
8527;DHT22;4301;48.362;8.478;2023-01-24T04:20:23;0.00;99.90
8527;DHT22;4301;48.362;8.478;2023-01-24T04:22:51;0.00;99.90
8527;DHT22;4301;48.362;8.478;2023-01-24T04:25:17;0.00;99.90
8527;DHT22;4301;48.362;8.478;2023-01-24T04:27:45;0.00;99.90
8527;DHT22;4301;48.362;8.478;2023-01-24T04:30:14;0.00;99.90
8527;DHT22;4301;48.362;8.478;2023-01-24T04:32:41;0.00;99.90
8527;DHT22;4301;48.362;8.478;2023-01-24T04:35:14;-0.10;99.90
8527;DHT22;4301;48.362;8.478;2023-01-24T04:37:43;-0.10;99.90
8527;DHT22;4301;48.362;8.478;2023-01-24T04:40:11;-0.10;99.90
8527;DHT22;4301;48.362;8.478;2023-01-24T04:42:39;0.00;99.90
8527;DHT22;4301;48.362;8.478;2023-01-24T04:45:07;-0.10;99.90
8527;DHT22;4301;48.362;8.478;2023-01-24T04:47:34;0.00;99.90
8527;DHT22;4301;48.362;8.478;2023-01-24T04:50:01;-0.10;99.90
8527;DHT22;4301;48.362;8.478;2023-01-24T04:52:28;-0.10;99.90
8527;DHT22;4301;48.362;8.478;2023-01-24T04:54:56;-0.10;99.90
8527;DHT22;4301;48.362;8.478;2023-01-24T04:57:23;-0.10;99.90
8527;DHT22;4301;48.362;8.478;2023-01-24T04:59:50;-0.10;99.90
8527;DHT22;4301;48.362;8.478;2023-01-24T05:02:17;0.00;99.90
8527;DHT22;4301;48.362;8.478;2023-01-24T05:04:44;0.00;99.90
8527;DHT22;4301;48.362;8.478;2023-01-24T05:07:10;0.00;99.90
8527;DHT22;4301;48.362;8.478;2023-01-24T05:09:37;0.00;99.90
8527;DHT22;4301;48.362;8.478;2023-01-24T05:12:06;-0.10;99.90
8527;DHT22;4301;48.362;8.478;2023-01-24T05:14:34;0.00;99.90
8527;DHT22;4301;48.362;8.478;2023-01-24T05:17:00;0.00;99.90
8527;DHT22;4301;48.362;8.478;2023-01-24T05:19:27;0.00;99.90
8527;DHT22;4301;48.362;8.478;2023-01-24T05:21:54;0.00;99.90
8527;DHT22;4301;48.362;8.478;2023-01-24T05:24:21;0.00;99.90
8527;DHT22;4301;48.362;8.478;2023-01-24T05:26:48;0.00;99.90
8527;DHT22;4301;48.362;8.478;2023-01-24T05:29:16;0.00;99.90
8527;DHT22;4301;48.362;8.478;2023-01-24T05:31:43;0.00;99.90
8527;DHT22;4301;48.362;8.478;2023-01-24T05:34:10;0.00;99.90
8527;DHT22;4301;48.362;8.478;2023-01-24T05:36:37;0.00;99.90
8527;DHT22;4301;48.362;8.478;2023-01-24T05:39:04;-0.10;99.90
8527;DHT22;4301;48.362;8.478;2023-01-24T05:41:31;0.00;99.90
8527;DHT22;4301;48.362;8.478;2023-01-24T05:43:58;0.00;99.90
8527;DHT22;4301;48.362;8.478;2023-01-24T05:46:27;0.00;99.90
8527;DHT22;4301;48.362;8.478;2023-01-24T05:48:55;0.00;99.90
8527;DHT22;4301;48.362;8.478;2023-01-24T05:51:22;0.00;99.90
8527;DHT22;4301;48.362;8.478;2023-01-24T05:53:49;0.00;99.90
8527;DHT22;4301;48.362;8.478;2023-01-24T05:56:18;0.00;99.90
8527;DHT22;4301;48.362;8.478;2023-01-24T05:58:46;0.00;99.90
8527;DHT22;4301;48.362;8.478;2023-01-24T06:01:15;0.00;99.90
8527;DHT22;4301;48.362;8.478;2023-01-24T06:03:45;0.00;99.90
8527;DHT22;4301;48.362;8.478;2023-01-24T06:06:15;0.00;99.90
8527;DHT22;4301;48.362;8.478;2023-01-24T06:08:42;0.00;99.90
8527;DHT22;4301;48.362;8.478;2023-01-24T06:11:11;0.00;99.90
8527;DHT22;4301;48.362;8.478;2023-01-24T06:13:39;0.00;99.90
8527;DHT22;4301;48.362;8.478;2023-01-24T06:16:09;0.00;99.90
8527;DHT22;4301;48.362;8.478;2023-01-24T06:18:37;0.00;99.90
8527;DHT22;4301;48.362;8.478;2023-01-24T06:21:07;0.10;99.90
8527;DHT22;4301;48.362;8.478;2023-01-24T06:23:35;0.10;99.90
8527;DHT22;4301;48.362;8.478;2023-01-24T06:26:03;0.00;99.90
8527;DHT22;4301;48.362;8.478;2023-01-24T06:28:30;0.00;99.90
8527;DHT22;4301;48.362;8.478;2023-01-24T06:31:02;0.00;99.90
8527;DHT22;4301;48.362;8.478;2023-01-24T06:33:41;0.00;99.90
8527;DHT22;4301;48.362;8.478;2023-01-24T06:36:34;0.00;99.90
8527;DHT22;4301;48.362;8.478;2023-01-24T06:39:10;0.10;99.90
8527;DHT22;4301;48.362;8.478;2023-01-24T06:41:39;0.10;99.90
8527;DHT22;4301;48.362;8.478;2023-01-24T06:44:07;0.10;99.90
8527;DHT22;4301;48.362;8.478;2023-01-24T06:46:35;0.10;99.90
8527;DHT22;4301;48.362;8.478;2023-01-24T06:49:02;0.20;99.90
8527;DHT22;4301;48.362;8.478;2023-01-24T06:51:30;0.10;99.90
8527;DHT22;4301;48.362;8.478;2023-01-24T06:53:57;0.10;99.90
8527;DHT22;4301;48.362;8.478;2023-01-24T06:56:24;0.10;99.90
8527;DHT22;4301;48.362;8.478;2023-01-24T06:58:50;0.10;99.90
8527;DHT22;4301;48.362;8.478;2023-01-24T07:01:18;0.10;99.90
8527;DHT22;4301;48.362;8.478;2023-01-24T07:03:45;0.10;99.90
8527;DHT22;4301;48.362;8.478;2023-01-24T07:06:12;0.10;99.90
8527;DHT22;4301;48.362;8.478;2023-01-24T07:08:41;0.10;99.90
8527;DHT22;4301;48.362;8.478;2023-01-24T07:11:08;0.10;99.90
8527;DHT22;4301;48.362;8.478;2023-01-24T07:13:35;0.10;99.90
8527;DHT22;4301;48.362;8.478;2023-01-24T07:16:02;0.10;99.90
8527;DHT22;4301;48.362;8.478;2023-01-24T07:18:29;0.10;99.90
8527;DHT22;4301;48.362;8.478;2023-01-24T07:20:56;0.10;99.90
8527;DHT22;4301;48.362;8.478;2023-01-24T07:23:25;0.10;99.90
8527;DHT22;4301;48.362;8.478;2023-01-24T07:25:55;0.10;99.90
8527;DHT22;4301;48.362;8.478;2023-01-24T07:28:22;0.10;99.90
8527;DHT22;4301;48.362;8.478;2023-01-24T07:30:50;0.20;99.90
8527;DHT22;4301;48.362;8.478;2023-01-24T07:33:18;0.20;99.90
8527;DHT22;4301;48.362;8.478;2023-01-24T07:35:45;0.20;99.90
8527;DHT22;4301;48.362;8.478;2023-01-24T07:38:12;0.20;99.90
8527;DHT22;4301;48.362;8.478;2023-01-24T07:40:39;0.20;99.90
8527;DHT22;4301;48.362;8.478;2023-01-24T07:43:08;0.20;99.90
8527;DHT22;4301;48.362;8.478;2023-01-24T07:45:35;0.20;99.90
8527;DHT22;4301;48.362;8.478;2023-01-24T07:48:04;0.30;99.90
8527;DHT22;4301;48.362;8.478;2023-01-24T07:50:31;0.20;99.90
8527;DHT22;4301;48.362;8.478;2023-01-24T07:52:58;0.30;99.90
8527;DHT22;4301;48.362;8.478;2023-01-24T07:55:26;0.30;99.90
8527;DHT22;4301;48.362;8.478;2023-01-24T07:57:57;0.20;99.90
8527;DHT22;4301;48.362;8.478;2023-01-24T08:00:26;0.20;99.90
8527;DHT22;4301;48.362;8.478;2023-01-24T08:02:53;0.20;99.90
8527;DHT22;4301;48.362;8.478;2023-01-24T08:05:20;0.30;99.90
8527;DHT22;4301;48.362;8.478;2023-01-24T08:07:47;0.30;99.90
8527;DHT22;4301;48.362;8.478;2023-01-24T08:10:14;0.30;99.90
8527;DHT22;4301;48.362;8.478;2023-01-24T08:12:41;0.40;99.90
8527;DHT22;4301;48.362;8.478;2023-01-24T08:15:08;0.40;99.90
8527;DHT22;4301;48.362;8.478;2023-01-24T08:17:37;0.30;99.90
8527;DHT22;4301;48.362;8.478;2023-01-24T08:20:06;0.30;99.90
8527;DHT22;4301;48.362;8.478;2023-01-24T08:22:33;0.30;99.90
8527;DHT22;4301;48.362;8.478;2023-01-24T08:25:00;0.30;99.90
8527;DHT22;4301;48.362;8.478;2023-01-24T08:27:27;0.30;99.90
8527;DHT22;4301;48.362;8.478;2023-01-24T08:29:54;0.30;99.90
8527;DHT22;4301;48.362;8.478;2023-01-24T08:32:21;0.30;99.90
8527;DHT22;4301;48.362;8.478;2023-01-24T08:34:49;0.30;99.90
8527;DHT22;4301;48.362;8.478;2023-01-24T08:37:16;0.30;99.90
8527;DHT22;4301;48.362;8.478;2023-01-24T08:39:43;0.40;99.90
8527;DHT22;4301;48.362;8.478;2023-01-24T08:42:10;0.40;99.90
8527;DHT22;4301;48.362;8.478;2023-01-24T08:44:37;0.40;99.90
8527;DHT22;4301;48.362;8.478;2023-01-24T08:47:04;0.40;99.90
8527;DHT22;4301;48.362;8.478;2023-01-24T08:49:31;0.40;99.90
8527;DHT22;4301;48.362;8.478;2023-01-24T08:52:00;0.40;99.90
8527;DHT22;4301;48.362;8.478;2023-01-24T08:54:27;0.40;99.90
8527;DHT22;4301;48.362;8.478;2023-01-24T08:56:54;0.50;99.90
8527;DHT22;4301;48.362;8.478;2023-01-24T08:59:21;0.50;99.90
8527;DHT22;4301;48.362;8.478;2023-01-24T09:01:48;0.50;99.90
8527;DHT22;4301;48.362;8.478;2023-01-24T09:04:15;0.50;99.90
8527;DHT22;4301;48.362;8.478;2023-01-24T09:06:42;0.50;99.90
8527;DHT22;4301;48.362;8.478;2023-01-24T09:09:11;0.50;99.90
8527;DHT22;4301;48.362;8.478;2023-01-24T09:11:38;0.50;99.90
8527;DHT22;4301;48.362;8.478;2023-01-24T09:14:04;0.50;99.90
8527;DHT22;4301;48.362;8.478;2023-01-24T09:16:31;0.50;99.90
8527;DHT22;4301;48.362;8.478;2023-01-24T09:18:59;0.50;99.90
8527;DHT22;4301;48.362;8.478;2023-01-24T09:21:26;0.50;99.90
8527;DHT22;4301;48.362;8.478;2023-01-24T09:23:53;0.50;99.90
8527;DHT22;4301;48.362;8.478;2023-01-24T09:26:22;0.50;99.90
8527;DHT22;4301;48.362;8.478;2023-01-24T09:28:49;0.60;99.90
8527;DHT22;4301;48.362;8.478;2023-01-24T09:31:16;0.60;99.90
8527;DHT22;4301;48.362;8.478;2023-01-24T09:33:43;0.60;99.90
8527;DHT22;4301;48.362;8.478;2023-01-24T09:36:10;0.60;99.90
8527;DHT22;4301;48.362;8.478;2023-01-24T09:38:37;0.60;99.90
8527;DHT22;4301;48.362;8.478;2023-01-24T09:41:10;0.70;99.90
8527;DHT22;4301;48.362;8.478;2023-01-24T09:43:46;0.60;99.90
8527;DHT22;4301;48.362;8.478;2023-01-24T09:46:25;0.70;99.90
8527;DHT22;4301;48.362;8.478;2023-01-24T09:49:00;0.70;99.90
8527;DHT22;4301;48.362;8.478;2023-01-24T09:51:30;0.70;99.90
8527;DHT22;4301;48.362;8.478;2023-01-24T09:54:00;0.80;99.90
8527;DHT22;4301;48.362;8.478;2023-01-24T09:56:33;0.70;99.90
8527;DHT22;4301;48.362;8.478;2023-01-24T09:59:12;0.80;99.90
8527;DHT22;4301;48.362;8.478;2023-01-24T10:01:42;0.80;99.90
8527;DHT22;4301;48.362;8.478;2023-01-24T10:04:15;0.80;99.90
8527;DHT22;4301;48.362;8.478;2023-01-24T10:06:56;0.90;99.90
8527;DHT22;4301;48.362;8.478;2023-01-24T10:09:35;0.80;99.90
8527;DHT22;4301;48.362;8.478;2023-01-24T10:12:14;0.90;99.90
8527;DHT22;4301;48.362;8.478;2023-01-24T10:14:52;0.90;99.90
8527;DHT22;4301;48.362;8.478;2023-01-24T10:17:42;0.90;99.90
8527;DHT22;4301;48.362;8.478;2023-01-24T10:20:28;0.90;99.90
8527;DHT22;4301;48.362;8.478;2023-01-24T10:23:04;1.00;99.90
8527;DHT22;4301;48.362;8.478;2023-01-24T10:25:37;0.90;99.90
8527;DHT22;4301;48.362;8.478;2023-01-24T10:28:18;0.80;99.90
8527;DHT22;4301;48.362;8.478;2023-01-24T10:30:52;0.90;99.90
8527;DHT22;4301;48.362;8.478;2023-01-24T10:33:20;0.90;99.90
8527;DHT22;4301;48.362;8.478;2023-01-24T10:35:54;0.80;99.90
8527;DHT22;4301;48.362;8.478;2023-01-24T10:38:22;0.90;99.90
8527;DHT22;4301;48.362;8.478;2023-01-24T10:40:51;0.90;99.90
8527;DHT22;4301;48.362;8.478;2023-01-24T10:43:20;0.90;99.90
8527;DHT22;4301;48.362;8.478;2023-01-24T10:46:08;0.90;99.90
8527;DHT22;4301;48.362;8.478;2023-01-24T10:48:41;1.00;99.90
8527;DHT22;4301;48.362;8.478;2023-01-24T10:51:14;1.00;99.90
8527;DHT22;4301;48.362;8.478;2023-01-24T10:53:41;1.00;99.90
8527;DHT22;4301;48.362;8.478;2023-01-24T10:56:08;1.00;99.90
8527;DHT22;4301;48.362;8.478;2023-01-24T10:58:36;1.00;99.90
8527;DHT22;4301;48.362;8.478;2023-01-24T11:01:08;1.00;99.90
8527;DHT22;4301;48.362;8.478;2023-01-24T11:03:43;1.00;99.90
8527;DHT22;4301;48.362;8.478;2023-01-24T11:06:28;1.00;99.90
8527;DHT22;4301;48.362;8.478;2023-01-24T11:09:02;0.90;99.90
8527;DHT22;4301;48.362;8.478;2023-01-24T11:11:31;1.00;99.90
8527;DHT22;4301;48.362;8.478;2023-01-24T11:13:59;1.00;99.90
8527;DHT22;4301;48.362;8.478;2023-01-24T11:16:32;1.00;99.90
8527;DHT22;4301;48.362;8.478;2023-01-24T11:19:02;1.00;99.90
8527;DHT22;4301;48.362;8.478;2023-01-24T11:21:30;1.00;99.90
8527;DHT22;4301;48.362;8.478;2023-01-24T11:24:07;1.00;99.90
8527;DHT22;4301;48.362;8.478;2023-01-24T11:26:37;1.00;99.90
8527;DHT22;4301;48.362;8.478;2023-01-24T11:29:09;1.10;99.90
8527;DHT22;4301;48.362;8.478;2023-01-24T11:31:45;1.10;99.90
8527;DHT22;4301;48.362;8.478;2023-01-24T11:34:33;1.10;99.90
8527;DHT22;4301;48.362;8.478;2023-01-24T11:37:18;1.20;99.90
8527;DHT22;4301;48.362;8.478;2023-01-24T11:39:55;1.10;99.90
8527;DHT22;4301;48.362;8.478;2023-01-24T11:42:34;1.10;99.90
8527;DHT22;4301;48.362;8.478;2023-01-24T11:45:20;1.10;99.90
8527;DHT22;4301;48.362;8.478;2023-01-24T11:48:05;1.10;99.90
8527;DHT22;4301;48.362;8.478;2023-01-24T11:50:53;1.20;99.90
8527;DHT22;4301;48.362;8.478;2023-01-24T11:53:52;1.20;99.90
8527;DHT22;4301;48.362;8.478;2023-01-24T11:56:29;1.20;99.90
8527;DHT22;4301;48.362;8.478;2023-01-24T11:59:19;1.20;99.90
8527;DHT22;4301;48.362;8.478;2023-01-24T12:01:54;1.20;99.90
8527;DHT22;4301;48.362;8.478;2023-01-24T12:04:58;1.10;99.90
8527;DHT22;4301;48.362;8.478;2023-01-24T12:07:36;1.20;99.90
8527;DHT22;4301;48.362;8.478;2023-01-24T12:10:18;1.20;99.90
8527;DHT22;4301;48.362;8.478;2023-01-24T12:12:51;1.10;99.90
8527;DHT22;4301;48.362;8.478;2023-01-24T12:15:27;1.20;99.90
8527;DHT22;4301;48.362;8.478;2023-01-24T12:18:12;1.20;99.90
8527;DHT22;4301;48.362;8.478;2023-01-24T12:21:05;1.20;99.90
8527;DHT22;4301;48.362;8.478;2023-01-24T12:23:39;1.20;99.90
8527;DHT22;4301;48.362;8.478;2023-01-24T12:26:11;1.20;99.90
8527;DHT22;4301;48.362;8.478;2023-01-24T12:28:44;1.10;99.90
8527;DHT22;4301;48.362;8.478;2023-01-24T12:31:17;1.20;99.90
8527;DHT22;4301;48.362;8.478;2023-01-24T12:33:50;1.20;99.90
8527;DHT22;4301;48.362;8.478;2023-01-24T12:36:28;1.20;99.90
8527;DHT22;4301;48.362;8.478;2023-01-24T12:39:00;1.30;99.90
8527;DHT22;4301;48.362;8.478;2023-01-24T12:41:32;1.30;99.90
8527;DHT22;4301;48.362;8.478;2023-01-24T12:44:04;1.30;99.90
8527;DHT22;4301;48.362;8.478;2023-01-24T12:46:38;1.30;99.90
8527;DHT22;4301;48.362;8.478;2023-01-24T12:49:16;1.30;99.90
8527;DHT22;4301;48.362;8.478;2023-01-24T12:51:55;1.20;99.90
8527;DHT22;4301;48.362;8.478;2023-01-24T12:54:28;1.30;99.90
8527;DHT22;4301;48.362;8.478;2023-01-24T12:56:59;1.20;99.90
8527;DHT22;4301;48.362;8.478;2023-01-24T12:59:28;1.20;99.90
8527;DHT22;4301;48.362;8.478;2023-01-24T13:02:17;1.30;99.90
8527;DHT22;4301;48.362;8.478;2023-01-24T13:04:53;1.20;99.90
8527;DHT22;4301;48.362;8.478;2023-01-24T13:07:32;1.20;99.90
8527;DHT22;4301;48.362;8.478;2023-01-24T13:10:11;1.10;99.90
8527;DHT22;4301;48.362;8.478;2023-01-24T13:12:41;1.20;99.90
8527;DHT22;4301;48.362;8.478;2023-01-24T13:15:16;1.20;99.90
8527;DHT22;4301;48.362;8.478;2023-01-24T13:20:55;1.20;99.90
8527;DHT22;4301;48.362;8.478;2023-01-24T13:23:38;1.20;99.90
8527;DHT22;4301;48.362;8.478;2023-01-24T13:26:26;1.30;99.90
8527;DHT22;4301;48.362;8.478;2023-01-24T13:29:09;1.20;99.90
8527;DHT22;4301;48.362;8.478;2023-01-24T13:31:49;1.20;99.90
8527;DHT22;4301;48.362;8.478;2023-01-24T13:34:21;1.20;99.90
8527;DHT22;4301;48.362;8.478;2023-01-24T13:36:50;1.20;99.90
8527;DHT22;4301;48.362;8.478;2023-01-24T13:39:30;1.20;99.90
8527;DHT22;4301;48.362;8.478;2023-01-24T13:42:03;1.20;99.90
8527;DHT22;4301;48.362;8.478;2023-01-24T13:44:32;1.20;99.90
8527;DHT22;4301;48.362;8.478;2023-01-24T13:47:23;1.10;99.90
8527;DHT22;4301;48.362;8.478;2023-01-24T13:50:16;1.20;99.90
8527;DHT22;4301;48.362;8.478;2023-01-24T13:52:48;1.20;99.90
8527;DHT22;4301;48.362;8.478;2023-01-24T13:56:00;1.20;99.90
8527;DHT22;4301;48.362;8.478;2023-01-24T13:58:31;1.20;99.90
8527;DHT22;4301;48.362;8.478;2023-01-24T14:01:01;1.20;99.90
8527;DHT22;4301;48.362;8.478;2023-01-24T14:03:35;1.20;99.90
8527;DHT22;4301;48.362;8.478;2023-01-24T14:06:12;1.20;99.90
8527;DHT22;4301;48.362;8.478;2023-01-24T14:08:48;1.20;99.90
8527;DHT22;4301;48.362;8.478;2023-01-24T14:11:39;1.20;99.90
8527;DHT22;4301;48.362;8.478;2023-01-24T14:14:30;1.20;99.90
8527;DHT22;4301;48.362;8.478;2023-01-24T14:19:56;1.20;99.90
8527;DHT22;4301;48.362;8.478;2023-01-24T14:25:27;1.10;99.90
8527;DHT22;4301;48.362;8.478;2023-01-24T14:28:01;1.10;99.90
8527;DHT22;4301;48.362;8.478;2023-01-24T14:30:37;1.20;99.90
8527;DHT22;4301;48.362;8.478;2023-01-24T14:33:20;1.20;99.90
8527;DHT22;4301;48.362;8.478;2023-01-24T14:35:58;1.20;99.90
8527;DHT22;4301;48.362;8.478;2023-01-24T14:38:26;1.10;99.90
8527;DHT22;4301;48.362;8.478;2023-01-24T14:40:54;1.10;99.90
8527;DHT22;4301;48.362;8.478;2023-01-24T14:43:26;1.00;99.90
8527;DHT22;4301;48.362;8.478;2023-01-24T14:45:57;1.00;99.90
8527;DHT22;4301;48.362;8.478;2023-01-24T14:48:24;1.00;99.90
8527;DHT22;4301;48.362;8.478;2023-01-24T14:51:03;1.00;99.90
8527;DHT22;4301;48.362;8.478;2023-01-24T14:53:33;1.00;99.90
8527;DHT22;4301;48.362;8.478;2023-01-24T14:56:02;0.90;99.90
8527;DHT22;4301;48.362;8.478;2023-01-24T14:58:33;1.00;99.90
8527;DHT22;4301;48.362;8.478;2023-01-24T15:01:01;1.00;99.90
8527;DHT22;4301;48.362;8.478;2023-01-24T15:03:30;1.10;99.90
8527;DHT22;4301;48.362;8.478;2023-01-24T15:05:59;1.00;99.90
8527;DHT22;4301;48.362;8.478;2023-01-24T15:08:27;1.00;99.90
8527;DHT22;4301;48.362;8.478;2023-01-24T15:11:01;1.00;99.90
8527;DHT22;4301;48.362;8.478;2023-01-24T15:13:35;1.00;99.90
8527;DHT22;4301;48.362;8.478;2023-01-24T15:16:04;1.00;99.90
8527;DHT22;4301;48.362;8.478;2023-01-24T15:18:40;0.90;99.90
8527;DHT22;4301;48.362;8.478;2023-01-24T15:21:21;1.00;99.90
8527;DHT22;4301;48.362;8.478;2023-01-24T15:23:50;0.90;99.90
8527;DHT22;4301;48.362;8.478;2023-01-24T15:26:35;1.00;99.90
8527;DHT22;4301;48.362;8.478;2023-01-24T15:32:40;0.90;99.90
8527;DHT22;4301;48.362;8.478;2023-01-24T15:35:22;0.90;99.90
8527;DHT22;4301;48.362;8.478;2023-01-24T15:41:16;0.90;99.90
8527;DHT22;4301;48.362;8.478;2023-01-24T15:43:49;0.90;99.90
8527;DHT22;4301;48.362;8.478;2023-01-24T15:46:28;0.90;99.90
8527;DHT22;4301;48.362;8.478;2023-01-24T15:49:31;0.90;99.90
8527;DHT22;4301;48.362;8.478;2023-01-24T15:54:56;0.90;99.90
8527;DHT22;4301;48.362;8.478;2023-01-24T15:57:26;0.90;99.90
8527;DHT22;4301;48.362;8.478;2023-01-24T15:59:56;0.90;99.90
8527;DHT22;4301;48.362;8.478;2023-01-24T16:02:24;0.90;99.90
8527;DHT22;4301;48.362;8.478;2023-01-24T16:04:52;0.90;99.90
8527;DHT22;4301;48.362;8.478;2023-01-24T16:07:19;0.90;99.90
8527;DHT22;4301;48.362;8.478;2023-01-24T16:09:47;0.90;99.90
8527;DHT22;4301;48.362;8.478;2023-01-24T16:12:15;0.90;99.90
8527;DHT22;4301;48.362;8.478;2023-01-24T16:14:47;0.90;99.90
8527;DHT22;4301;48.362;8.478;2023-01-24T16:17:16;0.90;99.90
8527;DHT22;4301;48.362;8.478;2023-01-24T16:19:45;0.90;99.90
8527;DHT22;4301;48.362;8.478;2023-01-24T16:22:13;0.90;99.90
8527;DHT22;4301;48.362;8.478;2023-01-24T16:24:41;0.90;99.90
8527;DHT22;4301;48.362;8.478;2023-01-24T16:27:10;0.90;99.90
8527;DHT22;4301;48.362;8.478;2023-01-24T16:29:38;0.90;99.90
8527;DHT22;4301;48.362;8.478;2023-01-24T16:32:18;0.80;99.90
8527;DHT22;4301;48.362;8.478;2023-01-24T16:34:45;0.80;99.90
8527;DHT22;4301;48.362;8.478;2023-01-24T16:37:14;0.80;99.90
8527;DHT22;4301;48.362;8.478;2023-01-24T16:39:43;0.90;99.90
8527;DHT22;4301;48.362;8.478;2023-01-24T16:42:14;0.90;99.90
8527;DHT22;4301;48.362;8.478;2023-01-24T16:44:41;0.90;99.90
8527;DHT22;4301;48.362;8.478;2023-01-24T16:47:08;0.80;99.90
8527;DHT22;4301;48.362;8.478;2023-01-24T16:49:37;0.80;99.90
8527;DHT22;4301;48.362;8.478;2023-01-24T16:52:04;0.80;99.90
8527;DHT22;4301;48.362;8.478;2023-01-24T16:54:32;0.80;99.90
8527;DHT22;4301;48.362;8.478;2023-01-24T16:56:59;0.80;99.90
8527;DHT22;4301;48.362;8.478;2023-01-24T16:59:26;0.80;99.90
8527;DHT22;4301;48.362;8.478;2023-01-24T17:01:53;0.80;99.90
8527;DHT22;4301;48.362;8.478;2023-01-24T17:04:20;0.80;99.90